Time;durP1;ratioP1;P1;durP2;ratioP2;P2;SDS_P1;SDS_P2;PMS_P1;PMS_P2;Temp;Humidity;BMP_temperature;BMP_pressure;BME280_temperature;BME280_humidity;BME280_pressure;Samples;Min_cycle;Max_cycle;Signal;HPM_P1;HPM_P2
2022/08/03 04:00:28;;;;;;;3.93;3.63;;;14.30;96.30;;;;;;5951339;23;20525;-80
2022/08/03 04:02:54;;;;;;;4.00;3.60;;;14.40;96.30;;;;;;4988010;28;20496;-79
2022/08/03 04:11:13;;;;;;;3.17;2.87;;;16.30;96.30;;;;;;4990438;28;20439;-80
2022/08/03 04:13:49;;;;;;;2.90;2.57;;;16.90;96.30;;;;;;4993387;28;20409;-80
2022/08/03 04:16:17;;;;;;;3.87;2.60;;;17.40;96.30;;;;;;4998127;28;20459;-78
2022/08/03 04:18:48;;;;;;;5.30;2.80;;;17.90;96.30;;;;;;4998499;28;20500;-77
2022/08/03 04:21:16;;;;;;;1.90;1.80;;;18.50;96.30;;;;;;4985416;28;20438;-81
2022/08/03 04:23:46;;;;;;;6.07;2.20;;;19.10;96.30;;;;;;4962574;28;20906;-80
2022/08/03 04:26:16;;;;;;;2.80;2.30;;;19.60;96.30;;;;;;4963198;28;20941;-80
2022/08/03 04:28:44;;;;;;;2.93;2.23;;;20.00;96.30;;;;;;4963017;28;20418;-76
2022/08/03 04:31:11;;;;;;;3.87;2.47;;;20.50;96.30;;;;;;4973969;28;20434;-76
2022/08/03 04:33:38;;;;;;;22.57;2.60;;;21.00;96.30;;;;;;4973923;28;20432;-80
2022/08/03 04:36:07;;;;;;;6.87;2.43;;;21.60;96.30;;;;;;4974002;28;20410;-76
2022/08/03 04:38:45;;;;;;;3.80;2.47;;;22.00;96.30;;;;;;4973672;28;20450;-77
2022/08/03 04:41:11;;;;;;;5.87;2.23;;;22.20;96.30;;;;;;4986102;28;20966;-79
2022/08/03 04:43:39;;;;;;;4.93;2.40;;;22.50;96.30;;;;;;4993188;28;20413;-77
2022/08/03 04:46:07;;;;;;;6.93;1.87;;;23.00;96.30;;;;;;4994085;28;20764;-79
2022/08/03 04:48:33;;;;;;;2.60;2.10;;;23.60;96.30;;;;;;4993393;28;20459;-76
2022/08/03 04:51:00;;;;;;;2.67;1.93;;;23.90;96.30;;;;;;4993146;28;20479;-76
2022/08/03 04:53:26;;;;;;;2.67;1.90;;;24.10;96.30;;;;;;4993092;28;20908;-76
2022/08/03 04:55:51;;;;;;;2.77;1.87;;;24.20;96.30;;;;;;4993043;28;20412;-77
2022/08/03 04:58:17;;;;;;;2.40;2.20;;;24.40;96.30;;;;;;4992734;28;20228;-77
2022/08/03 05:00:44;;;;;;;5.33;2.97;;;24.50;96.30;;;;;;4991422;28;20212;-77
2022/08/03 05:03:09;;;;;;;3.60;2.30;;;25.20;96.30;;;;;;4992911;28;20192;-81
2022/08/03 05:05:35;;;;;;;3.40;1.80;;;25.80;93.90;;;;;;4992892;28;20749;-76
2022/08/03 05:08:01;;;;;;;3.03;1.97;;;25.70;93.80;;;;;;4992629;28;20220;-76
2022/08/03 05:10:27;;;;;;;3.33;2.33;;;25.60;93.90;;;;;;4854800;28;20242;-77
2022/08/03 05:12:53;;;;;;;3.90;1.87;;;25.40;94.50;;;;;;4926983;29;20419;-77
2022/08/03 05:15:18;;;;;;;11.73;2.27;;;25.70;94.40;;;;;;4932643;29;20182;-77
2022/08/03 05:17:44;;;;;;;2.43;2.07;;;25.30;95.10;;;;;;4933575;29;20238;-77
2022/08/03 05:20:10;;;;;;;3.83;2.13;;;25.00;95.80;;;;;;4934125;29;20178;-77
2022/08/03 05:22:35;;;;;;;2.17;1.97;;;25.30;95.00;;;;;;4932944;29;20206;-77
2022/08/03 05:25:02;;;;;;;4.67;2.30;;;25.10;95.60;;;;;;4934660;29;20439;-75
2022/08/03 05:27:27;;;;;;;7.47;2.23;;;24.10;96.30;;;;;;4934778;29;20578;-72
2022/08/03 05:29:53;;;;;;;2.53;1.90;;;23.00;96.30;;;;;;4929589;29;20555;-73
2022/08/03 05:32:18;;;;;;;2.70;2.50;;;22.00;96.30;;;;;;4934416;29;20207;-74
2022/08/03 05:34:44;;;;;;;3.07;2.33;;;21.20;96.30;;;;;;4934888;29;20185;-72
2022/08/03 05:37:10;;;;;;;2.73;2.03;;;20.50;96.30;;;;;;4934402;29;20286;-73
2022/08/03 05:39:35;;;;;;;3.03;2.73;;;19.80;96.30;;;;;;4933639;29;20315;-73
2022/08/03 05:42:01;;;;;;;2.20;2.00;;;20.20;96.30;;;;;;4939685;29;20331;-73
2022/08/03 05:44:27;;;;;;;2.50;2.13;;;21.50;96.30;;;;;;4934429;29;20185;-73
2022/08/03 05:46:52;;;;;;;3.00;2.00;;;23.20;96.30;;;;;;4934503;29;20251;-75
2022/08/03 05:49:18;;;;;;;2.50;2.20;;;24.40;96.30;;;;;;4933772;29;20523;-74
2022/08/03 05:51:44;;;;;;;2.90;2.40;;;25.20;96.30;;;;;;4934028;29;20214;-74
2022/08/03 05:54:09;;;;;;;2.37;2.13;;;25.70;96.30;;;;;;4934151;29;20187;-73
2022/08/03 05:56:35;;;;;;;3.13;1.80;;;26.40;94.30;;;;;;4933148;29;20190;-74
2022/08/03 05:59:00;;;;;;;5.43;2.00;;;27.20;91.90;;;;;;4933896;29;20223;-75
2022/08/03 06:01:26;;;;;;;9.53;2.27;;;27.80;89.60;;;;;;4934100;29;20702;-75
2022/08/03 06:03:51;;;;;;;4.77;2.00;;;28.20;88.60;;;;;;4934388;29;20691;-75
2022/08/03 06:06:17;;;;;;;2.20;1.97;;;28.10;88.90;;;;;;4933428;29;20183;-75
2022/08/03 06:08:44;;;;;;;2.73;2.53;;;28.40;87.70;;;;;;4926499;29;20210;-75
2022/08/03 06:11:10;;;;;;;3.00;2.00;;;28.90;86.10;;;;;;4925561;29;20263;-75
2022/08/03 06:13:35;;;;;;;3.30;2.00;;;28.60;86.40;;;;;;4933431;29;20423;-75
2022/08/03 06:16:01;;;;;;;2.30;2.10;;;28.80;86.80;;;;;;4937844;29;20478;-75
2022/08/03 06:18:27;;;;;;;2.13;1.93;;;29.40;85.70;;;;;;4936994;29;20542;-73
2022/08/03 06:20:53;;;;;;;2.90;2.23;;;30.10;83.50;;;;;;4936423;29;20298;-73
2022/08/03 06:23:18;;;;;;;5.40;2.30;;;30.10;82.80;;;;;;4933319;29;20191;-73
2022/08/03 06:25:45;;;;;;;3.40;2.20;;;30.30;83.60;;;;;;4940699;29;20266;-75
2022/08/03 06:28:12;;;;;;;3.70;1.73;;;30.80;81.00;;;;;;4952685;28;20646;-72
2022/08/03 06:30:38;;;;;;;2.80;2.07;;;30.90;81.10;;;;;;4926483;29;20481;-75
2022/08/03 06:33:04;;;;;;;2.93;1.97;;;31.10;80.20;;;;;;4937206;29;20459;-74
2022/08/03 06:35:29;;;;;;;10.67;2.20;;;31.00;80.20;;;;;;4924208;29;20191;-74
2022/08/03 06:37:55;;;;;;;2.93;1.93;;;31.00;81.50;;;;;;4933316;29;20215;-73
2022/08/03 06:40:28;;;;;;;3.67;1.70;;;31.60;79.80;;;;;;4941544;29;20209;-74
2022/08/03 06:42:54;;;;;;;2.73;2.00;;;31.80;79.50;;;;;;4911901;29;20517;-73
2022/08/03 06:45:20;;;;;;;3.07;1.90;;;31.40;79.90;;;;;;4923302;29;20429;-73
2022/08/03 06:47:46;;;;;;;3.83;1.90;;;32.20;78.30;;;;;;4930049;29;20422;-73
2022/08/03 06:50:11;;;;;;;2.80;1.90;;;32.70;76.70;;;;;;4933398;29;20179;-73
2022/08/03 06:52:37;;;;;;;2.13;1.90;;;32.80;76.50;;;;;;4934641;29;20769;-74
2022/08/03 06:55:03;;;;;;;3.07;1.70;;;33.00;76.20;;;;;;4935935;29;20218;-75
2022/08/03 06:57:29;;;;;;;4.17;1.90;;;33.20;77.10;;;;;;4937014;28;20199;-74
2022/08/03 07:00:00;;;;;;;2.33;2.05;;;33.30;76.30;;;;;;4936269;29;20943;-78
2022/08/03 07:02:26;;;;;;;6.72;2.28;;;32.40;77.00;;;;;;4934810;29;20218;-77
2022/08/03 07:04:52;;;;;;;1.73;1.63;;;32.90;76.30;;;;;;4936535;29;20215;-78
2022/08/03 07:07:18;;;;;;;8.88;1.75;;;32.40;78.00;;;;;;4936483;29;20183;-78
2022/08/03 07:09:43;;;;;;;2.20;1.73;;;32.50;77.30;;;;;;4944672;29;20269;-77
2022/08/03 07:12:09;;;;;;;2.13;1.77;;;33.20;75.60;;;;;;4955816;29;20297;-78
2022/08/03 07:14:34;;;;;;;5.70;2.10;;;33.60;75.40;;;;;;4955628;29;20189;-78
2022/08/03 07:17:00;;;;;;;17.40;2.97;;;33.80;75.30;;;;;;4955920;29;20293;-78
2022/08/03 07:19:25;;;;;;;2.67;1.60;;;34.70;72.80;;;;;;4952209;29;20181;-77
2022/08/03 07:21:50;;;;;;;5.43;2.03;;;34.00;74.10;;;;;;4936651;29;20199;-77
2022/08/03 07:24:16;;;;;;;2.55;2.00;;;33.50;74.50;;;;;;4935873;29;20175;-78
2022/08/03 07:26:42;;;;;;;6.00;2.38;;;33.40;75.20;;;;;;4935476;29;20175;-78
2022/08/03 07:29:07;;;;;;;2.15;1.95;;;33.90;73.30;;;;;;4936075;29;20557;-78
2022/08/03 07:31:33;;;;;;;7.55;1.77;;;34.30;74.70;;;;;;4936571;29;20203;-78
2022/08/03 07:33:58;;;;;;;2.63;1.80;;;34.50;73.90;;;;;;4935943;29;20242;-78
2022/08/03 07:36:24;;;;;;;1.75;1.50;;;33.70;73.40;;;;;;4936177;29;20617;-78
2022/08/03 07:38:50;;;;;;;2.30;1.80;;;34.20;73.20;;;;;;4934340;29;20180;-77
2022/08/03 07:41:15;;;;;;;2.47;2.13;;;34.80;71.90;;;;;;4947926;29;20685;-77
2022/08/03 07:43:41;;;;;;;6.88;1.77;;;35.60;70.40;;;;;;4938354;29;20175;-78
2022/08/03 07:46:06;;;;;;;9.20;1.85;;;36.90;66.20;;;;;;4936496;29;20593;-78
2022/08/03 07:48:32;;;;;;;3.45;1.80;;;36.80;64.40;;;;;;4932195;29;20182;-78
2022/08/03 07:50:58;;;;;;;5.70;1.88;;;36.40;65.90;;;;;;4935763;29;20206;-78
2022/08/03 07:53:23;;;;;;;4.03;1.77;;;36.60;66.00;;;;;;4934764;29;20191;-80
2022/08/03 07:55:49;;;;;;;3.35;1.83;;;36.80;67.70;;;;;;4936396;29;20662;-80
2022/08/03 07:58:16;;;;;;;1.83;1.40;;;36.90;65.40;;;;;;4936006;29;20214;-79
2022/08/03 08:00:41;;;;;;;2.55;1.50;;;36.80;65.90;;;;;;4934808;29;20214;-79
2022/08/03 08:03:07;;;;;;;1.88;1.55;;;36.10;66.80;;;;;;4936139;28;20187;-79
2022/08/03 08:05:33;;;;;;;2.55;1.90;;;34.50;68.40;;;;;;4934389;29;20643;-79
2022/08/03 08:08:00;;;;;;;3.20;1.50;;;35.20;67.00;;;;;;4934539;29;20183;-79
2022/08/03 08:10:25;;;;;;;3.55;1.67;;;35.20;67.00;;;;;;4941496;28;20182;-79
2022/08/03 08:12:52;;;;;;;3.10;1.35;;;35.30;68.80;;;;;;4934576;28;20657;-79
2022/08/03 08:15:17;;;;;;;2.65;1.33;;;34.40;65.80;;;;;;4935948;29;20206;-79
2022/08/03 08:17:45;;;;;;;2.85;1.50;;;35.10;66.00;;;;;;4935500;29;20662;-78
2022/08/03 08:20:15;;;;;;;3.00;1.55;;;35.40;66.80;;;;;;4935145;29;20171;-78
2022/08/03 08:22:41;;;;;;;1.65;1.55;;;34.60;67.90;;;;;;4934371;29;20570;-78
2022/08/03 08:25:07;;;;;;;1.60;1.30;;;35.00;69.30;;;;;;4935722;29;20233;-79
2022/08/03 08:27:32;;;;;;;6.07;1.90;;;36.30;67.10;;;;;;4937861;29;20184;-79
2022/08/03 08:29:58;;;;;;;6.13;1.50;;;37.20;62.60;;;;;;4931452;29;20216;-78
2022/08/03 08:32:23;;;;;;;2.95;1.60;;;37.00;64.80;;;;;;4933062;29;20226;-79
2022/08/03 08:34:49;;;;;;;2.55;1.60;;;37.50;60.90;;;;;;4932034;29;20226;-79
2022/08/03 08:37:15;;;;;;;1.42;1.30;;;37.90;62.50;;;;;;4934139;29;20223;-79
2022/08/03 08:39:40;;;;;;;7.90;1.80;;;38.40;58.80;;;;;;4955060;29;20195;-76
2022/08/03 08:42:06;;;;;;;2.55;1.40;;;37.80;55.80;;;;;;4971128;28;20205;-76
2022/08/03 08:44:31;;;;;;;1.58;1.23;;;38.00;57.50;;;;;;4974439;28;20205;-75
2022/08/03 08:47:02;;;;;;;5.95;1.52;;;37.00;61.00;;;;;;4946166;29;20250;-78
2022/08/03 08:49:28;;;;;;;3.00;1.55;;;37.50;59.00;;;;;;4935226;29;20179;-78
2022/08/03 08:51:56;;;;;;;2.97;1.48;;;37.80;60.00;;;;;;4937193;29;20205;-77
2022/08/03 08:54:24;;;;;;;1.90;1.30;;;37.40;60.70;;;;;;4936560;29;20177;-79
2022/08/03 08:56:51;;;;;;;2.85;1.30;;;37.60;59.10;;;;;;4927887;29;20580;-78
2022/08/03 08:59:17;;;;;;;1.48;1.10;;;37.90;57.30;;;;;;4937324;29;20175;-77
2022/08/03 09:01:43;;;;;;;2.00;1.50;;;38.20;56.00;;;;;;4944123;29;20629;-77
2022/08/03 09:04:08;;;;;;;3.45;1.13;;;37.20;54.50;;;;;;4935508;29;20222;-78
2022/08/03 09:06:34;;;;;;;1.73;1.30;;;37.80;56.10;;;;;;4936665;29;20266;-78
2022/08/03 09:09:00;;;;;;;3.22;1.40;;;36.70;57.70;;;;;;4939048;29;20202;-78
2022/08/03 09:11:25;;;;;;;4.45;1.40;;;37.10;58.70;;;;;;4938793;29;20285;-78
2022/08/03 09:13:51;;;;;;;4.05;1.50;;;37.40;57.90;;;;;;4935721;29;20179;-78
2022/08/03 09:16:19;;;;;;;1.38;1.10;;;37.60;58.80;;;;;;4935852;29;20183;-79
2022/08/03 09:18:48;;;;;;;4.10;1.35;;;37.70;57.40;;;;;;4935750;29;20346;-78
2022/08/03 09:21:22;;;;;;;3.53;1.35;;;37.40;60.20;;;;;;4935838;29;20207;-77
2022/08/03 09:23:51;;;;;;;16.70;1.70;;;37.90;60.10;;;;;;4936149;29;20178;-77
2022/08/03 09:26:27;;;;;;;6.85;1.30;;;37.70;60.70;;;;;;4934390;29;20179;-78
2022/08/03 09:28:58;;;;;;;1.52;1.42;;;37.40;56.40;;;;;;4930639;29;20186;-78
2022/08/03 09:31:35;;;;;;;1.85;1.50;;;36.60;57.10;;;;;;4935436;29;20203;-77
2022/08/03 09:34:09;;;;;;;14.07;2.05;;;36.30;57.10;;;;;;4930663;29;20179;-79
2022/08/03 09:36:48;;;;;;;2.85;1.67;;;36.00;58.30;;;;;;4936149;29;20322;-77
2022/08/03 09:39:18;;;;;;;5.82;1.27;;;35.60;59.50;;;;;;4935102;29;20196;-77
2022/08/03 09:42:16;;;;;;;3.63;1.52;;;35.80;62.60;;;;;;4936201;29;20203;-78
2022/08/03 09:44:43;;;;;;;3.92;1.25;;;35.80;59.20;;;;;;4927337;29;20278;-78
2022/08/03 09:47:11;;;;;;;3.15;1.40;;;35.70;59.10;;;;;;4934914;29;20546;-78
2022/08/03 09:49:40;;;;;;;3.10;1.50;;;36.10;58.90;;;;;;4938797;29;20183;-77
2022/08/03 09:52:18;;;;;;;2.75;1.27;;;36.10;58.60;;;;;;4939544;29;20214;-78
2022/08/03 09:54:49;;;;;;;1.65;1.48;;;36.00;60.10;;;;;;4940222;29;20575;-79
2022/08/03 09:57:26;;;;;;;1.48;1.38;;;36.30;57.30;;;;;;4941998;29;20207;-77
2022/08/03 09:59:56;;;;;;;1.75;1.65;;;36.00;59.40;;;;;;4933908;29;20194;-77
2022/08/03 10:02:24;;;;;;;2.03;1.50;;;36.00;57.10;;;;;;4936932;29;20225;-77
2022/08/03 10:04:51;;;;;;;1.50;1.40;;;35.50;62.70;;;;;;4939136;29;20251;-77
2022/08/03 10:07:18;;;;;;;1.65;1.55;;;35.50;62.00;;;;;;4937421;29;20175;-78
2022/08/03 10:10:00;;;;;;;1.75;1.45;;;35.80;60.00;;;;;;4939700;29;20270;-78
2022/08/03 10:12:26;;;;;;;3.08;1.48;;;35.10;59.40;;;;;;4934232;29;20214;-78
2022/08/03 10:14:54;;;;;;;4.63;1.42;;;34.40;59.70;;;;;;4941449;29;20205;-76
2022/08/03 10:17:21;;;;;;;2.63;1.55;;;35.10;59.70;;;;;;4943873;28;20787;-76
2022/08/03 10:19:47;;;;;;;1.75;1.50;;;35.10;58.90;;;;;;4945376;29;20179;-76
2022/08/03 10:22:16;;;;;;;3.15;1.35;;;35.40;59.70;;;;;;4926542;29;20682;-78
2022/08/03 10:24:55;;;;;;;1.85;1.50;;;34.90;62.90;;;;;;4923433;29;20197;-77
2022/08/03 10:27:22;;;;;;;3.83;1.30;;;35.40;60.30;;;;;;4926703;29;20967;-75
2022/08/03 10:29:52;;;;;;;1.70;1.60;;;35.60;60.40;;;;;;4931674;29;20218;-78
2022/08/03 11:24:08;;;;;;;2.03;1.40;;;;;;;;;;5136897;23;20242;-75
2022/08/03 11:26:33;;;;;;;2.40;1.30;;;35.00;57.70;;;;;;4916326;29;20184;-75
2022/08/03 11:29:30;;;;;;;2.13;1.42;;;35.50;59.90;;;;;;4917789;29;20176;-77
2022/08/03 11:31:56;;;;;;;6.18;1.40;;;35.90;58.50;;;;;;4929050;29;20286;-76
2022/08/03 11:34:23;;;;;;;2.85;1.30;;;36.10;58.10;;;;;;4937174;29;20279;-76
2022/08/03 11:37:23;;;;;;;4.07;1.42;;;35.90;61.00;;;;;;4943122;29;20556;-76
2022/08/03 11:39:51;;;;;;;3.05;1.73;;;36.30;57.30;;;;;;4939107;29;20693;-77
2022/08/03 11:42:23;;;;;;;4.47;1.42;;;36.10;55.80;;;;;;4943826;28;20668;-76
2022/08/03 11:44:53;;;;;;;1.88;1.60;;;35.00;59.40;;;;;;4935927;29;20176;-77
2022/08/03 11:47:20;;;;;;;2.67;1.30;;;35.20;60.30;;;;;;4936396;29;20179;-76
2022/08/03 11:49:47;;;;;;;5.80;1.60;;;35.40;58.80;;;;;;4936035;29;20182;-76
2022/08/03 11:52:13;;;;;;;2.00;1.60;;;35.40;58.20;;;;;;4935901;29;20262;-76
2022/08/03 11:54:39;;;;;;;1.55;1.40;;;35.20;57.80;;;;;;4938814;29;20199;-76
2022/08/03 11:57:05;;;;;;;1.50;1.40;;;34.70;57.00;;;;;;4936638;29;20203;-76
2022/08/03 11:59:32;;;;;;;4.10;1.42;;;34.20;59.80;;;;;;4936416;29;20700;-76
2022/08/03 12:02:11;;;;;;;2.72;1.70;;;34.60;63.20;;;;;;4939230;29;20203;-76
2022/08/03 12:04:59;;;;;;;1.38;1.27;;;35.10;58.00;;;;;;4934466;29;20191;-79
2022/08/03 12:07:27;;;;;;;1.48;1.38;;;33.90;57.50;;;;;;4928134;29;20194;-76
2022/08/03 12:10:09;;;;;;;1.90;1.30;;;34.00;63.50;;;;;;4927632;29;20214;-80
2022/08/03 12:12:35;;;;;;;1.70;1.42;;;35.40;59.70;;;;;;4927282;29;20233;-77
2022/08/03 12:15:02;;;;;;;1.77;1.65;;;35.90;59.10;;;;;;4935957;29;20189;-76
2022/08/03 12:17:35;;;;;;;1.40;1.30;;;35.00;56.10;;;;;;4930058;29;20340;-76
2022/08/03 12:20:01;;;;;;;4.05;1.48;;;34.50;56.80;;;;;;4939512;29;20197;-76
2022/08/03 12:22:34;;;;;;;1.52;1.30;;;34.50;58.40;;;;;;4935719;29;20209;-76
2022/08/03 12:25:00;;;;;;;4.03;1.40;;;34.30;57.10;;;;;;4935406;29;20194;-76
2022/08/03 12:27:28;;;;;;;1.85;1.75;;;34.00;59.20;;;;;;4950043;29;20237;-76
2022/08/03 12:29:56;;;;;;;1.50;1.40;;;34.40;60.30;;;;;;4935579;29;20629;-76
2022/08/03 12:32:22;;;;;;;4.40;1.75;;;35.00;60.70;;;;;;4935376;29;20205;-78
2022/08/03 12:34:48;;;;;;;2.58;1.30;;;35.20;58.80;;;;;;4937190;29;20183;-78
2022/08/03 12:37:19;;;;;;;2.63;1.65;;;35.60;60.20;;;;;;4936814;29;20286;-78
2022/08/03 12:39:50;;;;;;;2.65;1.42;;;36.00;57.00;;;;;;4938044;29;20171;-77
2022/08/03 12:42:15;;;;;;;1.70;1.48;;;35.70;58.40;;;;;;4956459;28;20269;-79
2022/08/03 12:44:41;;;;;;;4.50;1.70;;;35.90;56.20;;;;;;4956221;29;20262;-77
2022/08/03 12:47:09;;;;;;;4.10;1.77;;;35.40;57.00;;;;;;4954343;29;20651;-77
2022/08/03 12:49:48;;;;;;;2.78;1.67;;;35.40;58.20;;;;;;4933100;28;20179;-76
2022/08/03 12:52:15;;;;;;;2.55;1.75;;;35.20;57.60;;;;;;4934249;29;20254;-78
2022/08/03 12:54:41;;;;;;;1.50;1.40;;;35.10;55.90;;;;;;4931805;29;20183;-77
2022/08/03 12:57:09;;;;;;;2.25;1.58;;;34.80;56.80;;;;;;4926258;29;20286;-78
2022/08/03 12:59:35;;;;;;;1.88;1.45;;;34.60;57.30;;;;;;4923746;29;20188;-78
2022/08/03 13:02:03;;;;;;;2.70;1.80;;;34.80;59.90;;;;;;4925232;29;20198;-78
2022/08/03 13:04:34;;;;;;;7.28;1.70;;;35.20;55.50;;;;;;4935182;29;20266;-76
2022/08/03 13:07:02;;;;;;;2.60;1.90;;;35.70;57.60;;;;;;4939993;29;20203;-78
2022/08/03 13:09:31;;;;;;;4.00;1.60;;;36.10;61.20;;;;;;4945883;29;20249;-78
2022/08/03 13:12:18;;;;;;;1.50;1.40;;;36.60;59.50;;;;;;4959310;28;20563;-78
2022/08/03 13:14:47;;;;;;;1.63;1.42;;;36.50;57.10;;;;;;4959838;29;20174;-78
2022/08/03 13:17:15;;;;;;;1.63;1.52;;;36.10;55.10;;;;;;4961088;28;20213;-78
2022/08/03 13:19:41;;;;;;;4.53;1.40;;;36.40;55.00;;;;;;4958908;28;20171;-78
2022/08/03 13:22:14;;;;;;;7.18;2.00;;;35.80;54.80;;;;;;4959225;28;20198;-78
2022/08/03 13:24:41;;;;;;;2.17;1.52;;;35.30;56.60;;;;;;4963429;28;20182;-77
2022/08/03 13:27:07;;;;;;;2.25;1.60;;;35.50;58.50;;;;;;4961742;28;20180;-77
2022/08/03 13:29:33;;;;;;;4.03;1.45;;;35.80;59.10;;;;;;4963003;28;20182;-78
2022/08/03 13:32:00;;;;;;;6.07;1.60;;;35.40;58.50;;;;;;4962988;28;20198;-77
2022/08/03 13:34:25;;;;;;;4.70;1.95;;;35.00;59.60;;;;;;4963277;28;20270;-78
2022/08/03 13:36:51;;;;;;;1.58;1.48;;;34.70;57.20;;;;;;4962034;28;20613;-78
2022/08/03 13:39:18;;;;;;;4.30;1.52;;;34.90;59.20;;;;;;4951289;29;20247;-77
2022/08/03 13:41:44;;;;;;;1.50;1.40;;;35.30;57.60;;;;;;4958522;28;20285;-79
2022/08/03 13:44:10;;;;;;;15.32;2.13;;;35.10;58.10;;;;;;4942855;29;20210;-78
2022/08/03 13:46:35;;;;;;;3.38;1.40;;;34.80;58.30;;;;;;4943252;29;20186;-77
2022/08/03 13:49:01;;;;;;;2.83;1.55;;;35.60;59.00;;;;;;4942090;29;20233;-76
2022/08/03 13:51:26;;;;;;;6.93;1.73;;;36.10;57.80;;;;;;4937180;29;20253;-76
2022/08/03 13:53:52;;;;;;;3.65;1.67;;;36.60;56.50;;;;;;4938143;29;20194;-76
2022/08/03 13:56:17;;;;;;;6.22;1.80;;;36.50;55.60;;;;;;4938084;29;20633;-75
2022/08/03 13:58:43;;;;;;;2.20;1.58;;;35.80;54.30;;;;;;4937964;29;20782;-75
2022/08/03 14:01:08;;;;;;;2.83;1.70;;;34.80;55.60;;;;;;4940071;29;20195;-77
2022/08/03 14:03:34;;;;;;;10.43;1.85;;;34.80;57.80;;;;;;4940778;29;20253;-76
2022/08/03 14:05:59;;;;;;;5.15;1.90;;;34.70;56.80;;;;;;4942276;29;20175;-77
2022/08/03 14:08:25;;;;;;;3.03;2.15;;;35.00;58.90;;;;;;4942387;29;20187;-77
2022/08/03 14:10:50;;;;;;;4.60;1.80;;;34.80;58.70;;;;;;4960730;28;20709;-77
2022/08/03 14:13:16;;;;;;;2.33;1.60;;;35.10;56.40;;;;;;4961516;28;20190;-77
2022/08/03 14:15:41;;;;;;;2.65;1.40;;;34.60;56.20;;;;;;4961793;28;20216;-77
2022/08/03 14:18:08;;;;;;;4.68;1.63;;;34.50;57.70;;;;;;4960253;29;20694;-77
2022/08/03 14:20:33;;;;;;;1.80;1.60;;;34.00;58.10;;;;;;4960419;28;20194;-77
2022/08/03 14:22:59;;;;;;;3.78;1.65;;;34.60;58.20;;;;;;4961059;28;20670;-77
2022/08/03 14:25:24;;;;;;;3.13;1.55;;;35.20;57.10;;;;;;4961285;29;20181;-77
2022/08/03 14:27:50;;;;;;;4.70;1.75;;;35.20;59.60;;;;;;4960471;29;20182;-77
2022/08/03 14:30:15;;;;;;;2.20;1.58;;;35.60;57.40;;;;;;4959641;28;20241;-77
2022/08/03 14:32:41;;;;;;;1.90;1.60;;;35.80;56.50;;;;;;4961251;28;20182;-77
2022/08/03 14:35:07;;;;;;;4.10;1.77;;;35.70;55.20;;;;;;4964337;28;20187;-78
2022/08/03 14:37:33;;;;;;;1.95;1.75;;;35.20;55.30;;;;;;4967427;28;20223;-78
2022/08/03 14:39:58;;;;;;;2.00;1.77;;;35.20;55.10;;;;;;4965421;29;20191;-78
2022/08/03 14:42:24;;;;;;;5.82;1.67;;;36.10;57.60;;;;;;4940901;29;20206;-79
2022/08/03 14:44:49;;;;;;;4.85;1.75;;;36.10;55.30;;;;;;4942755;29;20194;-77
2022/08/03 14:47:15;;;;;;;1.83;1.67;;;36.40;56.60;;;;;;4940382;29;20183;-78
2022/08/03 14:49:41;;;;;;;3.22;1.40;;;36.50;56.80;;;;;;4942166;29;20185;-78
2022/08/03 14:52:07;;;;;;;6.03;1.83;;;36.20;52.80;;;;;;4940844;29;20229;-77
2022/08/03 14:54:32;;;;;;;1.50;1.40;;;35.60;53.80;;;;;;4941799;29;20202;-77
2022/08/03 14:56:59;;;;;;;2.85;1.58;;;35.40;54.30;;;;;;4941621;29;20245;-77
2022/08/03 14:59:24;;;;;;;2.03;1.60;;;34.90;54.80;;;;;;4940985;29;20172;-77
2022/08/03 15:01:50;;;;;;;1.95;1.75;;;35.20;54.70;;;;;;4940383;29;20191;-77
2022/08/03 15:04:15;;;;;;;1.70;1.40;;;34.90;56.10;;;;;;4941274;29;20178;-77
2022/08/03 15:06:41;;;;;;;4.68;1.60;;;35.30;55.70;;;;;;4941356;29;20207;-77
2022/08/03 15:09:06;;;;;;;1.98;1.70;;;35.30;57.70;;;;;;4946592;29;20186;-77
2022/08/03 15:11:32;;;;;;;4.03;1.70;;;;;;;;;;4960393;28;20767;-77
2022/08/03 15:13:58;;;;;;;2.65;1.45;;;35.30;57.00;;;;;;4960462;28;20249;-78
2022/08/03 15:16:23;;;;;;;2.85;1.75;;;35.50;57.30;;;;;;4960042;29;20183;-79
2022/08/03 15:18:49;;;;;;;2.63;1.60;;;35.50;57.60;;;;;;4961870;28;20214;-78
2022/08/03 15:21:14;;;;;;;7.22;1.52;;;35.70;56.70;;;;;;4962164;28;20205;-77
2022/08/03 15:23:40;;;;;;;3.03;1.67;;;35.90;56.60;;;;;;4960510;29;20198;-77
2022/08/03 15:26:05;;;;;;;1.70;1.60;;;35.70;53.70;;;;;;4958404;29;20262;-78
2022/08/03 15:28:31;;;;;;;5.15;1.55;;;35.70;53.50;;;;;;4961847;28;20174;-77
2022/08/03 15:30:57;;;;;;;3.42;1.98;;;35.30;54.20;;;;;;4962180;28;20581;-78
2022/08/03 15:33:22;;;;;;;2.80;1.40;;;34.80;54.50;;;;;;4961527;28;20198;-77
2022/08/03 15:35:48;;;;;;;1.80;1.70;;;34.80;57.80;;;;;;4960203;28;20179;-77
2022/08/03 15:38:14;;;;;;;6.65;3.25;;;34.70;56.10;;;;;;4961021;28;20202;-77
2022/08/03 15:40:40;;;;;;;5.57;1.73;;;34.40;58.80;;;;;;4953174;29;20675;-77
2022/08/03 15:43:05;;;;;;;12.02;1.80;;;34.40;58.70;;;;;;4942668;29;20182;-76
2022/08/03 15:45:31;;;;;;;1.58;1.33;;;34.60;58.50;;;;;;4941846;29;20262;-77
2022/08/03 15:47:56;;;;;;;12.02;2.00;;;34.70;58.70;;;;;;4941706;29;20179;-77
2022/08/03 15:50:22;;;;;;;6.95;1.60;;;35.20;57.00;;;;;;4941779;29;20655;-77
2022/08/03 15:52:48;;;;;;;2.40;1.52;;;35.40;56.90;;;;;;4941901;29;20218;-77
2022/08/03 15:55:13;;;;;;;5.63;1.75;;;35.40;54.40;;;;;;4942431;29;20191;-77
2022/08/03 15:57:39;;;;;;;2.70;1.85;;;35.30;56.70;;;;;;4942282;29;20254;-77
2022/08/03 16:00:07;;;;;;;1.92;1.48;;;35.40;55.40;;;;;;4940590;29;20182;-77
2022/08/03 16:02:32;;;;;;;2.67;1.70;;;35.30;58.20;;;;;;4941495;29;20258;-77
2022/08/03 16:04:58;;;;;;;3.70;1.60;;;35.40;56.40;;;;;;4941174;29;20210;-78
2022/08/03 16:07:56;;;;;;;1.67;1.58;;;34.80;56.20;;;;;;4941590;29;20201;-77
2022/08/03 16:10:16;;;;;;;6.28;1.90;;;34.40;56.20;;;;;;4952848;28;20253;-77
2022/08/03 16:12:42;;;;;;;1.77;1.67;;;34.70;57.80;;;;;;4958614;28;20178;-77
2022/08/03 16:15:09;;;;;;;1.92;1.45;;;34.80;58.40;;;;;;4960725;28;20263;-76
2022/08/03 16:17:35;;;;;;;1.90;1.58;;;35.00;57.40;;;;;;4955421;28;20541;-76
2022/08/03 16:20:01;;;;;;;3.90;1.80;;;35.00;57.00;;;;;;4955994;28;20209;-78
2022/08/03 16:22:27;;;;;;;4.13;1.60;;;35.00;57.70;;;;;;4956769;28;20285;-78
2022/08/03 16:24:53;;;;;;;2.40;1.60;;;34.90;58.30;;;;;;4957166;29;20178;-78
2022/08/03 16:27:20;;;;;;;5.47;1.80;;;35.00;58.80;;;;;;4957115;28;20190;-78
2022/08/03 16:29:45;;;;;;;2.10;1.60;;;35.00;58.50;;;;;;4955450;28;20646;-77
2022/08/03 16:32:11;;;;;;;5.03;1.80;;;34.50;57.80;;;;;;4955748;28;20239;-77
2022/08/03 16:34:38;;;;;;;6.32;1.88;;;34.20;58.20;;;;;;4954755;29;20249;-78
2022/08/03 16:37:03;;;;;;;2.10;1.60;;;34.10;57.60;;;;;;4954544;28;20206;-77
2022/08/03 16:39:30;;;;;;;4.20;1.48;;;34.00;57.20;;;;;;4955299;28;20233;-78
2022/08/03 16:41:56;;;;;;;3.20;1.70;;;33.50;57.70;;;;;;4937340;29;20303;-78
2022/08/03 16:44:22;;;;;;;2.78;1.38;;;33.20;60.30;;;;;;4936101;29;20540;-78
2022/08/03 16:46:48;;;;;;;1.50;1.40;;;;;;;;;;4935056;29;20648;-78
2022/08/03 16:49:13;;;;;;;1.65;1.55;;;33.40;62.40;;;;;;4936397;29;20175;-78
2022/08/03 16:51:39;;;;;;;4.30;2.00;;;33.50;59.50;;;;;;4936417;29;20231;-78
2022/08/03 16:54:05;;;;;;;2.58;1.63;;;33.70;60.20;;;;;;4937929;29;20178;-78
2022/08/03 16:56:31;;;;;;;3.67;1.80;;;33.80;62.40;;;;;;4937618;29;20194;-79
2022/08/03 16:58:57;;;;;;;4.95;2.05;;;33.60;60.10;;;;;;4938505;29;20683;-77
2022/08/03 17:01:23;;;;;;;4.50;1.73;;;33.50;61.30;;;;;;4935523;29;20222;-78
2022/08/03 17:03:57;;;;;;;5.05;1.70;;;33.30;62.20;;;;;;4937276;29;20198;-78
2022/08/03 17:06:24;;;;;;;4.03;1.70;;;33.00;59.90;;;;;;4937483;29;20182;-77
2022/08/03 17:08:50;;;;;;;2.40;1.60;;;33.00;65.90;;;;;;4939323;29;20702;-78
2022/08/03 17:11:16;;;;;;;5.60;2.20;;;33.10;63.70;;;;;;4939346;28;20484;-78
2022/08/03 17:13:43;;;;;;;3.63;1.70;;;33.10;64.70;;;;;;4935267;29;20182;-78
2022/08/03 17:16:10;;;;;;;1.60;1.50;;;;;;;;;;4935882;29;20193;-78
2022/08/03 17:18:56;;;;;;;2.87;1.63;;;32.60;63.90;;;;;;4935452;29;20998;-78
2022/08/03 17:21:26;;;;;;;4.13;1.83;;;32.40;65.60;;;;;;4947376;29;20439;-77
2022/08/03 17:24:19;;;;;;;2.63;1.60;;;32.20;65.90;;;;;;4933184;29;20255;-78
2022/08/03 17:26:49;;;;;;;2.40;1.60;;;31.90;67.10;;;;;;4941220;29;20490;-77
2022/08/03 17:29:17;;;;;;;2.67;1.73;;;31.70;65.80;;;;;;4956167;29;20422;-78
2022/08/03 17:31:43;;;;;;;8.60;1.83;;;31.70;68.20;;;;;;4937109;29;20518;-76
2022/08/03 17:34:09;;;;;;;2.70;1.70;;;31.60;68.80;;;;;;4933358;29;20801;-76
2022/08/03 17:36:36;;;;;;;4.20;1.80;;;31.50;70.30;;;;;;4934588;29;20183;-76
2022/08/03 17:39:03;;;;;;;2.10;1.90;;;31.50;70.00;;;;;;4934494;29;20563;-76
2022/08/03 17:41:32;;;;;;;2.07;1.60;;;31.60;68.50;;;;;;4933340;29;20929;-76
2022/08/03 17:43:58;;;;;;;7.10;1.73;;;31.50;69.30;;;;;;4933342;29;20415;-76
2022/08/03 17:46:25;;;;;;;1.80;1.70;;;31.50;68.30;;;;;;4934532;29;20423;-77